createdAt,value
2024-01-14T00:08:45.843Z,22.67
2024-01-14T00:23:47.805Z,21.50
2024-01-14T00:38:49.930Z,21.70
2024-01-14T00:53:52.090Z,21.27
2024-01-14T01:08:54.032Z,22.47
2024-01-14T01:23:56.180Z,23.17
2024-01-14T01:38:58.259Z,21.70
2024-01-14T01:54:00.337Z,23.60
2024-01-14T02:09:02.378Z,21.40
2024-01-14T02:24:35.326Z,22.93
2024-01-14T02:39:37.276Z,21.10
2024-01-14T02:54:39.254Z,19.10
2024-01-14T03:09:41.325Z,16.43
2024-01-14T03:24:43.486Z,18.90
2024-01-14T03:39:45.460Z,18.27
2024-01-14T03:54:47.373Z,15.50
2024-01-14T04:09:49.261Z,19.30
2024-01-14T04:24:51.174Z,20.10
2024-01-14T04:39:55.042Z,21.87
2024-01-14T04:54:56.949Z,25.67
2024-01-14T05:09:59.067Z,27.57
2024-01-14T05:25:01.074Z,19.13
2024-01-14T05:40:03.283Z,19.73
2024-01-14T05:55:05.974Z,20.27
2024-01-14T06:10:09.746Z,20.53
2024-01-14T06:25:11.701Z,25.97
2024-01-14T06:40:18.413Z,27.37
2024-01-14T06:55:23.477Z,28.40
2024-01-14T07:10:25.382Z,29.53
2024-01-14T07:25:27.672Z,22.87
2024-01-14T07:40:29.581Z,20.57
2024-01-14T07:55:31.879Z,26.83
2024-01-14T08:10:34.589Z,28.47
2024-01-14T08:25:36.625Z,16.97
2024-01-14T08:40:38.684Z,21.50
2024-01-14T08:55:40.612Z,21.17
2024-01-14T09:10:42.579Z,21.00
2024-01-14T09:25:44.517Z,23.83
2024-01-14T09:40:52.633Z,25.50
2024-01-14T09:55:55.444Z,26.03
2024-01-14T10:10:58.592Z,23.43
2024-01-14T10:26:04.135Z,27.23
2024-01-14T10:41:06.314Z,24.23
2024-01-14T10:56:16.828Z,24.93
2024-01-14T11:11:25.253Z,22.30
2024-01-14T11:26:29.470Z,22.60
2024-01-14T11:41:32.655Z,22.03
2024-01-14T11:56:37.500Z,25.33
2024-01-14T12:11:40.301Z,23.73
2024-01-14T12:26:48.250Z,25.33
2024-01-14T12:41:54.558Z,24.37
2024-01-14T12:57:16.284Z,22.40
2024-01-14T13:12:22.576Z,19.67
2024-01-14T13:27:25.100Z,19.47
2024-01-14T13:42:27.442Z,19.13
2024-01-14T13:57:29.539Z,17.77
2024-01-14T14:12:31.588Z,18.30
2024-01-14T14:27:33.729Z,21.30
2024-01-14T14:42:35.721Z,23.77
2024-01-14T14:57:37.718Z,28.80
2024-01-14T15:12:39.649Z,35.40
2024-01-14T15:27:42.128Z,35.83
2024-01-14T15:42:44.180Z,38.80
2024-01-14T15:57:46.341Z,43.23
2024-01-14T16:12:48.495Z,33.67
2024-01-14T16:27:50.402Z,20.80
2024-01-14T16:42:53.090Z,16.47
2024-01-14T16:57:55.664Z,19.83
2024-01-14T17:12:58.483Z,25.70
2024-01-14T17:28:01.505Z,31.07
2024-01-14T17:43:03.581Z,39.27
2024-01-14T17:58:05.894Z,36.67
2024-01-14T18:13:13.093Z,38.60
2024-01-14T18:28:16.497Z,46.03
2024-01-14T18:43:19.568Z,44.33
2024-01-14T18:58:24.497Z,40.07
2024-01-14T19:13:26.533Z,39.20
2024-01-14T19:28:28.649Z,41.60
2024-01-14T19:43:31.559Z,52.90
2024-01-14T19:58:33.404Z,48.73
2024-01-14T20:13:35.306Z,43.87
2024-01-14T20:28:37.240Z,43.27
2024-01-14T20:43:39.186Z,41.53
2024-01-14T20:58:41.117Z,38.17
2024-01-14T21:13:43.167Z,37.57
2024-01-14T21:28:45.133Z,43.37
2024-01-14T21:43:47.017Z,46.37
2024-01-14T21:58:49.711Z,40.30
2024-01-14T22:13:51.776Z,37.87
2024-01-14T22:28:57.254Z,32.07
2024-01-14T22:44:01.345Z,37.50
2024-01-14T22:59:03.975Z,40.17
2024-01-14T23:14:05.965Z,36.87
2024-01-14T23:29:08.018Z,34.07
2024-01-14T23:44:11.542Z,31.00
2024-01-14T23:59:13.547Z,30.27
